Accueil
METAR-TAF:

METAR-TAF

Aéroports :

Anvers, Belgique

Aéroport d'Anvers

latitude: 51-12N, longitude: 004-28E, altitude: 12 m

Observation

Le bulletin a été fait il y a 19 minutes, à 15:20 UTC
Vent 6 kt de est, variant entre nord/nord-est et sud-est
Température 23°C
Humidité 50%
Pression 1019 hPa
Visibilité 10 km ou plus
pas de nuages en-dessous de 1500 mètres et pas de cumulonimbus.

METAR: EBAW 211520Z 08006KT 030V140 CAVOK 23/12 Q1019 NOSIG

Heure: 17:39 (15:39 UTC)

Prévision

Le bulletin a été fait il y a 1 heure et 39 minutes, à 14:00 UTC
Prévision valable du 21 à 15 UTC au 21 à 24 UTC
Vent 5 kt de est/nord-est
Visibilité 10 km ou plus
pas de nuages en-dessous de 1500 mètres et pas de cumulonimbus.

TAF: EBAW 211400Z 2115/2124 07005KT CAVOK

Observations et prévisions météorologiques de plus de 4000 aéroports (messages METAR et TAF).

Les stations disponibles sont représentées par des disques jaunes et rouges sur la carte.

Passer la souris dessus pour voir le nom de la station.

Cliquer dessus pour voir les observations et prévisions météorologiques.

Pour changer de carte: cliquez sur les boutons verts avec une croix noire pour zoomer, sur le bouton vert avec un tiret pour effectuer un zoom arrière, ou sur les flèches vertes pour les cartes adjacentes.


METAR-TAF: